sensor_id;sensor_type;location;lat;lon;timestamp;P1;durP1;ratioP1;P2;durP2;ratioP2
20042;SDS011;10182;52.896;6.496;2023-03-11T00:00:32;12.93;;;2.80;;
20042;SDS011;10182;52.896;6.496;2023-03-11T00:05:38;6.37;;;2.30;;
20042;SDS011;10182;52.896;6.496;2023-03-11T00:10:42;7.17;;;2.73;;
20042;SDS011;10182;52.896;6.496;2023-03-11T00:15:48;8.43;;;2.70;;
20042;SDS011;10182;52.896;6.496;2023-03-11T00:20:51;11.17;;;2.40;;
20042;SDS011;10182;52.896;6.496;2023-03-11T00:25:54;8.07;;;2.80;;
20042;SDS011;10182;52.896;6.496;2023-03-11T00:30:57;3.10;;;1.73;;
20042;SDS011;10182;52.896;6.496;2023-03-11T00:36:02;7.00;;;2.20;;
20042;SDS011;10182;52.896;6.496;2023-03-11T00:41:06;3.47;;;2.20;;
20042;SDS011;10182;52.896;6.496;2023-03-11T00:46:10;9.83;;;2.20;;
20042;SDS011;10182;52.896;6.496;2023-03-11T00:51:12;9.87;;;2.30;;
20042;SDS011;10182;52.896;6.496;2023-03-11T00:56:16;2.87;;;2.20;;
20042;SDS011;10182;52.896;6.496;2023-03-11T01:01:21;9.50;;;2.33;;
20042;SDS011;10182;52.896;6.496;2023-03-11T01:06:23;9.20;;;2.43;;
20042;SDS011;10182;52.896;6.496;2023-03-11T01:11:25;5.67;;;2.20;;
20042;SDS011;10182;52.896;6.496;2023-03-11T01:16:29;7.97;;;2.40;;
20042;SDS011;10182;52.896;6.496;2023-03-11T01:21:31;11.20;;;2.50;;
20042;SDS011;10182;52.896;6.496;2023-03-11T01:26:33;4.27;;;1.70;;
20042;SDS011;10182;52.896;6.496;2023-03-11T01:31:36;5.43;;;1.70;;
20042;SDS011;10182;52.896;6.496;2023-03-11T01:36:38;9.50;;;2.70;;
20042;SDS011;10182;52.896;6.496;2023-03-11T01:41:40;6.90;;;1.80;;
20042;SDS011;10182;52.896;6.496;2023-03-11T01:52:20;6.90;;;1.97;;
20042;SDS011;10182;52.896;6.496;2023-03-11T01:57:24;3.87;;;1.50;;
20042;SDS011;10182;52.896;6.496;2023-03-11T02:02:27;4.20;;;1.80;;
20042;SDS011;10182;52.896;6.496;2023-03-11T02:07:36;4.03;;;1.30;;
20042;SDS011;10182;52.896;6.496;2023-03-11T02:12:41;7.80;;;1.67;;
20042;SDS011;10182;52.896;6.496;2023-03-11T02:17:45;3.77;;;1.60;;
20042;SDS011;10182;52.896;6.496;2023-03-11T02:22:48;4.03;;;1.40;;
20042;SDS011;10182;52.896;6.496;2023-03-11T02:27:57;2.47;;;1.27;;
20042;SDS011;10182;52.896;6.496;2023-03-11T02:33:01;5.90;;;1.40;;
20042;SDS011;10182;52.896;6.496;2023-03-11T02:38:03;5.83;;;1.57;;
20042;SDS011;10182;52.896;6.496;2023-03-11T02:43:08;5.57;;;1.20;;
20042;SDS011;10182;52.896;6.496;2023-03-11T02:48:11;4.10;;;1.37;;
20042;SDS011;10182;52.896;6.496;2023-03-11T02:53:15;4.83;;;1.23;;
20042;SDS011;10182;52.896;6.496;2023-03-11T02:58:18;4.83;;;1.83;;
20042;SDS011;10182;52.896;6.496;2023-03-11T03:03:20;3.60;;;1.33;;
20042;SDS011;10182;52.896;6.496;2023-03-11T03:08:22;1.43;;;0.80;;
20042;SDS011;10182;52.896;6.496;2023-03-11T03:13:26;4.83;;;1.03;;
20042;SDS011;10182;52.896;6.496;2023-03-11T03:18:28;3.63;;;1.27;;
20042;SDS011;10182;52.896;6.496;2023-03-11T03:23:33;1.97;;;1.37;;
20042;SDS011;10182;52.896;6.496;2023-03-11T03:28:38;5.20;;;1.20;;
20042;SDS011;10182;52.896;6.496;2023-03-11T03:33:40;4.70;;;1.90;;
20042;SDS011;10182;52.896;6.496;2023-03-11T03:38:42;4.73;;;1.43;;
20042;SDS011;10182;52.896;6.496;2023-03-11T03:43:46;6.13;;;1.60;;
20042;SDS011;10182;52.896;6.496;2023-03-11T03:48:48;4.13;;;1.27;;
20042;SDS011;10182;52.896;6.496;2023-03-11T03:53:50;5.60;;;1.50;;
20042;SDS011;10182;52.896;6.496;2023-03-11T03:58:54;3.97;;;1.23;;
20042;SDS011;10182;52.896;6.496;2023-03-11T04:03:56;2.60;;;1.27;;
20042;SDS011;10182;52.896;6.496;2023-03-11T04:08:58;5.37;;;1.60;;
20042;SDS011;10182;52.896;6.496;2023-03-11T04:14:02;6.60;;;1.10;;
20042;SDS011;10182;52.896;6.496;2023-03-11T04:19:04;3.30;;;1.83;;
20042;SDS011;10182;52.896;6.496;2023-03-11T04:24:07;3.07;;;1.40;;
20042;SDS011;10182;52.896;6.496;2023-03-11T04:29:14;3.30;;;1.53;;
20042;SDS011;10182;52.896;6.496;2023-03-11T04:34:15;5.20;;;1.57;;
20042;SDS011;10182;52.896;6.496;2023-03-11T04:39:17;1.97;;;1.37;;
20042;SDS011;10182;52.896;6.496;2023-03-11T04:44:21;5.97;;;1.93;;
20042;SDS011;10182;52.896;6.496;2023-03-11T04:49:23;2.83;;;1.30;;
20042;SDS011;10182;52.896;6.496;2023-03-11T04:54:25;2.30;;;1.27;;
20042;SDS011;10182;52.896;6.496;2023-03-11T04:59:30;1.70;;;1.60;;
20042;SDS011;10182;52.896;6.496;2023-03-11T05:04:32;3.70;;;1.43;;
20042;SDS011;10182;52.896;6.496;2023-03-11T05:09:34;4.47;;;1.27;;
20042;SDS011;10182;52.896;6.496;2023-03-11T05:14:38;11.20;;;2.00;;
20042;SDS011;10182;52.896;6.496;2023-03-11T05:19:40;4.93;;;1.33;;
20042;SDS011;10182;52.896;6.496;2023-03-11T05:24:42;8.43;;;1.73;;
20042;SDS011;10182;52.896;6.496;2023-03-11T05:29:47;5.40;;;1.57;;
20042;SDS011;10182;52.896;6.496;2023-03-11T05:34:49;3.70;;;1.83;;
20042;SDS011;10182;52.896;6.496;2023-03-11T05:39:51;2.10;;;1.20;;
20042;SDS011;10182;52.896;6.496;2023-03-11T05:44:55;1.97;;;1.20;;
20042;SDS011;10182;52.896;6.496;2023-03-11T05:49:56;4.63;;;1.40;;
20042;SDS011;10182;52.896;6.496;2023-03-11T05:55:00;2.27;;;1.40;;
20042;SDS011;10182;52.896;6.496;2023-03-11T06:00:04;5.47;;;1.50;;
20042;SDS011;10182;52.896;6.496;2023-03-11T06:05:10;2.73;;;1.93;;
20042;SDS011;10182;52.896;6.496;2023-03-11T06:10:12;5.63;;;2.37;;
20042;SDS011;10182;52.896;6.496;2023-03-11T06:15:16;7.80;;;2.20;;
20042;SDS011;10182;52.896;6.496;2023-03-11T06:20:18;5.13;;;3.10;;
20042;SDS011;10182;52.896;6.496;2023-03-11T06:25:20;7.03;;;3.73;;
20042;SDS011;10182;52.896;6.496;2023-03-11T06:30:24;3.57;;;2.27;;
20042;SDS011;10182;52.896;6.496;2023-03-11T06:35:26;5.50;;;1.80;;
20042;SDS011;10182;52.896;6.496;2023-03-11T06:40:27;10.57;;;2.67;;
20042;SDS011;10182;52.896;6.496;2023-03-11T06:45:31;8.43;;;1.97;;
20042;SDS011;10182;52.896;6.496;2023-03-11T06:50:33;4.93;;;2.10;;
20042;SDS011;10182;52.896;6.496;2023-03-11T06:55:35;8.50;;;2.07;;
20042;SDS011;10182;52.896;6.496;2023-03-11T07:00:39;4.23;;;1.83;;
20042;SDS011;10182;52.896;6.496;2023-03-11T07:05:42;6.30;;;2.90;;
20042;SDS011;10182;52.896;6.496;2023-03-11T07:10:45;3.27;;;2.40;;
20042;SDS011;10182;52.896;6.496;2023-03-11T07:15:50;4.40;;;3.17;;
20042;SDS011;10182;52.896;6.496;2023-03-11T07:21:04;10.20;;;3.00;;
20042;SDS011;10182;52.896;6.496;2023-03-11T07:26:10;5.63;;;2.40;;
20042;SDS011;10182;52.896;6.496;2023-03-11T07:31:15;2.70;;;1.90;;
20042;SDS011;10182;52.896;6.496;2023-03-11T07:36:19;4.57;;;2.00;;
20042;SDS011;10182;52.896;6.496;2023-03-11T07:41:22;4.67;;;2.40;;
20042;SDS011;10182;52.896;6.496;2023-03-11T07:46:26;5.60;;;2.20;;
20042;SDS011;10182;52.896;6.496;2023-03-11T07:51:32;5.73;;;2.50;;
20042;SDS011;10182;52.896;6.496;2023-03-11T07:56:35;6.57;;;4.70;;
20042;SDS011;10182;52.896;6.496;2023-03-11T08:01:38;10.37;;;7.13;;
20042;SDS011;10182;52.896;6.496;2023-03-11T08:06:46;7.17;;;4.63;;
20042;SDS011;10182;52.896;6.496;2023-03-11T08:11:48;6.43;;;3.30;;
20042;SDS011;10182;52.896;6.496;2023-03-11T08:16:52;5.10;;;2.53;;
20042;SDS011;10182;52.896;6.496;2023-03-11T08:21:54;4.40;;;2.27;;
20042;SDS011;10182;52.896;6.496;2023-03-11T08:26:56;9.97;;;2.97;;
20042;SDS011;10182;52.896;6.496;2023-03-11T08:31:59;7.70;;;2.40;;
20042;SDS011;10182;52.896;6.496;2023-03-11T08:37:03;9.57;;;2.57;;
20042;SDS011;10182;52.896;6.496;2023-03-11T08:42:06;8.97;;;3.50;;
20042;SDS011;10182;52.896;6.496;2023-03-11T08:47:11;6.63;;;3.60;;
20042;SDS011;10182;52.896;6.496;2023-03-11T08:52:13;8.87;;;3.27;;
20042;SDS011;10182;52.896;6.496;2023-03-11T08:57:15;10.23;;;2.90;;
20042;SDS011;10182;52.896;6.496;2023-03-11T09:02:18;7.83;;;2.43;;
20042;SDS011;10182;52.896;6.496;2023-03-11T09:07:20;4.67;;;2.40;;
20042;SDS011;10182;52.896;6.496;2023-03-11T09:12:22;5.17;;;2.30;;
20042;SDS011;10182;52.896;6.496;2023-03-11T09:17:25;2.23;;;1.50;;
20042;SDS011;10182;52.896;6.496;2023-03-11T09:22:28;6.23;;;2.43;;
20042;SDS011;10182;52.896;6.496;2023-03-11T09:27:30;7.00;;;2.90;;
20042;SDS011;10182;52.896;6.496;2023-03-11T09:32:33;2.97;;;2.30;;
20042;SDS011;10182;52.896;6.496;2023-03-11T09:37:35;6.00;;;2.30;;
20042;SDS011;10182;52.896;6.496;2023-03-11T09:42:37;6.93;;;2.57;;
20042;SDS011;10182;52.896;6.496;2023-03-11T09:47:48;31.73;;;21.27;;
20042;SDS011;10182;52.896;6.496;2023-03-11T09:53:09;11.67;;;6.20;;
20042;SDS011;10182;52.896;6.496;2023-03-11T09:58:21;12.33;;;3.47;;
20042;SDS011;10182;52.896;6.496;2023-03-11T10:03:45;9.60;;;2.40;;
20042;SDS011;10182;52.896;6.496;2023-03-11T10:08:50;5.47;;;2.60;;
20042;SDS011;10182;52.896;6.496;2023-03-11T10:14:00;7.80;;;2.90;;
20042;SDS011;10182;52.896;6.496;2023-03-11T10:19:13;4.33;;;2.33;;
20042;SDS011;10182;52.896;6.496;2023-03-11T10:24:29;6.03;;;2.40;;
20042;SDS011;10182;52.896;6.496;2023-03-11T10:29:42;7.20;;;2.27;;
20042;SDS011;10182;52.896;6.496;2023-03-11T10:34:53;4.97;;;2.30;;
20042;SDS011;10182;52.896;6.496;2023-03-11T10:39:59;6.27;;;2.10;;
20042;SDS011;10182;52.896;6.496;2023-03-11T10:45:10;5.87;;;2.00;;
20042;SDS011;10182;52.896;6.496;2023-03-11T10:50:16;4.60;;;1.87;;
20042;SDS011;10182;52.896;6.496;2023-03-11T10:55:20;6.10;;;2.50;;
20042;SDS011;10182;52.896;6.496;2023-03-11T11:00:27;3.60;;;2.00;;
20042;SDS011;10182;52.896;6.496;2023-03-11T11:05:32;7.43;;;2.00;;
20042;SDS011;10182;52.896;6.496;2023-03-11T11:10:36;7.67;;;1.93;;
20042;SDS011;10182;52.896;6.496;2023-03-11T11:15:56;6.43;;;2.83;;
20042;SDS011;10182;52.896;6.496;2023-03-11T11:21:04;9.83;;;3.97;;
20042;SDS011;10182;52.896;6.496;2023-03-11T11:26:13;8.30;;;2.10;;
20042;SDS011;10182;52.896;6.496;2023-03-11T11:31:22;5.83;;;1.90;;
20042;SDS011;10182;52.896;6.496;2023-03-11T11:36:27;4.63;;;2.90;;
20042;SDS011;10182;52.896;6.496;2023-03-11T11:41:32;6.00;;;1.67;;
20042;SDS011;10182;52.896;6.496;2023-03-11T11:46:37;4.03;;;1.90;;
20042;SDS011;10182;52.896;6.496;2023-03-11T11:51:45;4.53;;;1.77;;
20042;SDS011;10182;52.896;6.496;2023-03-11T11:56:55;2.87;;;1.70;;
20042;SDS011;10182;52.896;6.496;2023-03-11T12:01:59;5.43;;;1.70;;
20042;SDS011;10182;52.896;6.496;2023-03-11T12:07:14;4.40;;;1.40;;
20042;SDS011;10182;52.896;6.496;2023-03-11T12:12:31;5.50;;;1.77;;
20042;SDS011;10182;52.896;6.496;2023-03-11T12:17:40;5.10;;;1.70;;
20042;SDS011;10182;52.896;6.496;2023-03-11T12:28:19;3.33;;;1.07;;
20042;SDS011;10182;52.896;6.496;2023-03-11T12:33:26;2.70;;;1.13;;
20042;SDS011;10182;52.896;6.496;2023-03-11T12:38:35;3.33;;;1.07;;
20042;SDS011;10182;52.896;6.496;2023-03-11T12:49:09;2.30;;;0.90;;
20042;SDS011;10182;52.896;6.496;2023-03-11T12:54:20;7.20;;;1.43;;
20042;SDS011;10182;52.896;6.496;2023-03-11T13:05:22;2.60;;;1.53;;
20042;SDS011;10182;52.896;6.496;2023-03-11T13:10:36;5.60;;;1.47;;
20042;SDS011;10182;52.896;6.496;2023-03-11T13:15:40;5.70;;;1.87;;
20042;SDS011;10182;52.896;6.496;2023-03-11T13:20:43;1.87;;;1.27;;
20042;SDS011;10182;52.896;6.496;2023-03-11T13:31:41;5.13;;;1.40;;
20042;SDS011;10182;52.896;6.496;2023-03-11T13:36:56;3.43;;;1.50;;
20042;SDS011;10182;52.896;6.496;2023-03-11T13:42:19;2.30;;;1.47;;
20042;SDS011;10182;52.896;6.496;2023-03-11T13:47:26;2.23;;;1.30;;
20042;SDS011;10182;52.896;6.496;2023-03-11T13:52:31;3.30;;;1.40;;
20042;SDS011;10182;52.896;6.496;2023-03-11T13:57:37;4.07;;;1.60;;
20042;SDS011;10182;52.896;6.496;2023-03-11T14:02:41;2.97;;;1.13;;
20042;SDS011;10182;52.896;6.496;2023-03-11T14:07:47;2.33;;;1.87;;
20042;SDS011;10182;52.896;6.496;2023-03-11T14:12:51;2.80;;;1.10;;
20042;SDS011;10182;52.896;6.496;2023-03-11T14:18:18;3.03;;;0.87;;
20042;SDS011;10182;52.896;6.496;2023-03-11T14:23:28;8.70;;;1.50;;
20042;SDS011;10182;52.896;6.496;2023-03-11T14:28:36;3.20;;;1.20;;
20042;SDS011;10182;52.896;6.496;2023-03-11T14:33:41;5.20;;;1.60;;
20042;SDS011;10182;52.896;6.496;2023-03-11T14:38:43;3.57;;;0.90;;
20042;SDS011;10182;52.896;6.496;2023-03-11T14:43:48;2.80;;;1.17;;
20042;SDS011;10182;52.896;6.496;2023-03-11T14:48:53;4.17;;;1.17;;
20042;SDS011;10182;52.896;6.496;2023-03-11T14:54:03;4.13;;;1.27;;
20042;SDS011;10182;52.896;6.496;2023-03-11T14:59:11;4.30;;;1.60;;
20042;SDS011;10182;52.896;6.496;2023-03-11T15:04:23;2.83;;;0.90;;
20042;SDS011;10182;52.896;6.496;2023-03-11T15:09:32;3.83;;;1.33;;
20042;SDS011;10182;52.896;6.496;2023-03-11T15:14:49;2.37;;;1.13;;
20042;SDS011;10182;52.896;6.496;2023-03-11T15:19:52;2.90;;;1.10;;
20042;SDS011;10182;52.896;6.496;2023-03-11T15:24:55;4.20;;;1.50;;
20042;SDS011;10182;52.896;6.496;2023-03-11T15:30:00;4.90;;;1.83;;
20042;SDS011;10182;52.896;6.496;2023-03-11T15:35:11;3.73;;;1.30;;
20042;SDS011;10182;52.896;6.496;2023-03-11T15:40:18;6.37;;;1.57;;
20042;SDS011;10182;52.896;6.496;2023-03-11T15:45:24;4.83;;;3.83;;
20042;SDS011;10182;52.896;6.496;2023-03-11T15:50:26;5.47;;;3.63;;
20042;SDS011;10182;52.896;6.496;2023-03-11T15:55:28;2.73;;;1.97;;
20042;SDS011;10182;52.896;6.496;2023-03-11T16:00:32;3.10;;;2.20;;
20042;SDS011;10182;52.896;6.496;2023-03-11T16:05:35;4.90;;;4.47;;
20042;SDS011;10182;52.896;6.496;2023-03-11T16:10:38;3.80;;;3.50;;
20042;SDS011;10182;52.896;6.496;2023-03-11T16:15:41;4.33;;;3.63;;
20042;SDS011;10182;52.896;6.496;2023-03-11T16:20:46;8.30;;;5.17;;
20042;SDS011;10182;52.896;6.496;2023-03-11T16:25:50;5.90;;;5.37;;
20042;SDS011;10182;52.896;6.496;2023-03-11T16:30:57;6.77;;;6.07;;
20042;SDS011;10182;52.896;6.496;2023-03-11T16:35:59;19.57;;;17.77;;
20042;SDS011;10182;52.896;6.496;2023-03-11T16:41:01;5.03;;;3.37;;
20042;SDS011;10182;52.896;6.496;2023-03-11T16:46:07;8.40;;;4.43;;
20042;SDS011;10182;52.896;6.496;2023-03-11T16:51:10;5.17;;;2.80;;
20042;SDS011;10182;52.896;6.496;2023-03-11T16:56:12;3.90;;;1.60;;
20042;SDS011;10182;52.896;6.496;2023-03-11T17:01:15;5.20;;;1.70;;
20042;SDS011;10182;52.896;6.496;2023-03-11T17:06:18;2.03;;;1.13;;
20042;SDS011;10182;52.896;6.496;2023-03-11T17:11:21;3.53;;;1.40;;
20042;SDS011;10182;52.896;6.496;2023-03-11T17:16:28;1.70;;;1.30;;
20042;SDS011;10182;52.896;6.496;2023-03-11T17:21:30;3.73;;;1.57;;
20042;SDS011;10182;52.896;6.496;2023-03-11T17:26:32;2.97;;;2.03;;
20042;SDS011;10182;52.896;6.496;2023-03-11T17:31:36;4.47;;;1.60;;
20042;SDS011;10182;52.896;6.496;2023-03-11T17:36:37;4.07;;;1.87;;
20042;SDS011;10182;52.896;6.496;2023-03-11T17:41:40;4.80;;;1.43;;
20042;SDS011;10182;52.896;6.496;2023-03-11T17:46:43;1.73;;;1.63;;
20042;SDS011;10182;52.896;6.496;2023-03-11T17:51:45;2.87;;;1.90;;
20042;SDS011;10182;52.896;6.496;2023-03-11T17:56:47;3.47;;;1.67;;
20042;SDS011;10182;52.896;6.496;2023-03-11T18:01:50;6.10;;;4.27;;
20042;SDS011;10182;52.896;6.496;2023-03-11T18:06:52;10.00;;;5.53;;
20042;SDS011;10182;52.896;6.496;2023-03-11T18:11:55;6.83;;;4.60;;
20042;SDS011;10182;52.896;6.496;2023-03-11T18:16:58;17.63;;;10.97;;
20042;SDS011;10182;52.896;6.496;2023-03-11T18:22:00;7.80;;;7.00;;
20042;SDS011;10182;52.896;6.496;2023-03-11T18:27:01;6.07;;;2.50;;
20042;SDS011;10182;52.896;6.496;2023-03-11T18:32:05;13.53;;;6.47;;
20042;SDS011;10182;52.896;6.496;2023-03-11T18:37:09;6.00;;;3.13;;
20042;SDS011;10182;52.896;6.496;2023-03-11T18:42:11;5.67;;;4.40;;
20042;SDS011;10182;52.896;6.496;2023-03-11T18:47:16;9.90;;;8.93;;
20042;SDS011;10182;52.896;6.496;2023-03-11T18:52:18;3.13;;;2.83;;
20042;SDS011;10182;52.896;6.496;2023-03-11T18:57:20;8.00;;;3.60;;
20042;SDS011;10182;52.896;6.496;2023-03-11T19:02:24;6.67;;;3.97;;
20042;SDS011;10182;52.896;6.496;2023-03-11T19:07:26;6.93;;;4.70;;
20042;SDS011;10182;52.896;6.496;2023-03-11T19:12:29;6.23;;;5.70;;
20042;SDS011;10182;52.896;6.496;2023-03-11T19:17:34;6.63;;;3.93;;
20042;SDS011;10182;52.896;6.496;2023-03-11T19:22:36;5.50;;;3.83;;
20042;SDS011;10182;52.896;6.496;2023-03-11T19:27:38;5.30;;;2.43;;
20042;SDS011;10182;52.896;6.496;2023-03-11T19:32:41;4.77;;;3.03;;
20042;SDS011;10182;52.896;6.496;2023-03-11T19:37:44;5.50;;;2.57;;
20042;SDS011;10182;52.896;6.496;2023-03-11T19:42:49;4.67;;;3.47;;
20042;SDS011;10182;52.896;6.496;2023-03-11T19:47:53;4.67;;;3.50;;
20042;SDS011;10182;52.896;6.496;2023-03-11T19:52:55;6.53;;;5.68;;
20042;SDS011;10182;52.896;6.496;2023-03-11T19:57:57;10.17;;;7.00;;
20042;SDS011;10182;52.896;6.496;2023-03-11T20:03:00;8.87;;;4.50;;
20042;SDS011;10182;52.896;6.496;2023-03-11T20:08:03;9.07;;;5.53;;
20042;SDS011;10182;52.896;6.496;2023-03-11T20:13:06;12.97;;;6.20;;
20042;SDS011;10182;52.896;6.496;2023-03-11T20:18:10;10.70;;;7.17;;
20042;SDS011;10182;52.896;6.496;2023-03-11T20:23:12;7.80;;;5.97;;
20042;SDS011;10182;52.896;6.496;2023-03-11T20:28:14;28.83;;;13.40;;
20042;SDS011;10182;52.896;6.496;2023-03-11T20:33:18;59.83;;;32.30;;
20042;SDS011;10182;52.896;6.496;2023-03-11T20:38:20;30.60;;;16.00;;
20042;SDS011;10182;52.896;6.496;2023-03-11T20:43:22;21.93;;;12.50;;
20042;SDS011;10182;52.896;6.496;2023-03-11T20:48:28;15.37;;;10.03;;
20042;SDS011;10182;52.896;6.496;2023-03-11T20:53:31;15.43;;;9.10;;
20042;SDS011;10182;52.896;6.496;2023-03-11T20:58:33;12.13;;;7.77;;
20042;SDS011;10182;52.896;6.496;2023-03-11T21:03:38;8.57;;;5.30;;
20042;SDS011;10182;52.896;6.496;2023-03-11T21:08:40;7.63;;;6.83;;
20042;SDS011;10182;52.896;6.496;2023-03-11T21:13:43;9.67;;;8.40;;
20042;SDS011;10182;52.896;6.496;2023-03-11T21:18:47;14.10;;;8.30;;
20042;SDS011;10182;52.896;6.496;2023-03-11T21:23:51;11.83;;;6.83;;
20042;SDS011;10182;52.896;6.496;2023-03-11T21:28:54;9.40;;;7.13;;
20042;SDS011;10182;52.896;6.496;2023-03-11T21:33:58;12.20;;;7.13;;
20042;SDS011;10182;52.896;6.496;2023-03-11T21:39:01;6.93;;;5.83;;
20042;SDS011;10182;52.896;6.496;2023-03-11T21:44:03;8.60;;;4.73;;
20042;SDS011;10182;52.896;6.496;2023-03-11T21:49:06;6.60;;;3.63;;
20042;SDS011;10182;52.896;6.496;2023-03-11T21:54:10;4.70;;;4.13;;
20042;SDS011;10182;52.896;6.496;2023-03-11T21:59:12;4.90;;;4.30;;
20042;SDS011;10182;52.896;6.496;2023-03-11T22:04:16;30.90;;;18.20;;
20042;SDS011;10182;52.896;6.496;2023-03-11T22:09:18;31.27;;;20.47;;
20042;SDS011;10182;52.896;6.496;2023-03-11T22:14:20;17.03;;;13.83;;
20042;SDS011;10182;52.896;6.496;2023-03-11T22:19:23;7.27;;;6.57;;
20042;SDS011;10182;52.896;6.496;2023-03-11T22:24:25;11.50;;;8.37;;
20042;SDS011;10182;52.896;6.496;2023-03-11T22:29:27;13.07;;;7.60;;
20042;SDS011;10182;52.896;6.496;2023-03-11T22:34:30;12.10;;;9.53;;
20042;SDS011;10182;52.896;6.496;2023-03-11T22:39:32;10.80;;;9.03;;
20042;SDS011;10182;52.896;6.496;2023-03-11T22:44:35;39.23;;;21.90;;
20042;SDS011;10182;52.896;6.496;2023-03-11T22:49:38;46.00;;;28.70;;
20042;SDS011;10182;52.896;6.496;2023-03-11T22:54:41;24.07;;;15.23;;
20042;SDS011;10182;52.896;6.496;2023-03-11T22:59:44;10.87;;;9.00;;
20042;SDS011;10182;52.896;6.496;2023-03-11T23:04:48;9.27;;;7.77;;
20042;SDS011;10182;52.896;6.496;2023-03-11T23:09:52;11.27;;;8.03;;
20042;SDS011;10182;52.896;6.496;2023-03-11T23:14:54;8.97;;;7.33;;
20042;SDS011;10182;52.896;6.496;2023-03-11T23:19:58;10.70;;;7.87;;
20042;SDS011;10182;52.896;6.496;2023-03-11T23:25:00;11.60;;;7.43;;
20042;SDS011;10182;52.896;6.496;2023-03-11T23:30:04;11.13;;;7.23;;
20042;SDS011;10182;52.896;6.496;2023-03-11T23:35:09;10.23;;;6.93;;
20042;SDS011;10182;52.896;6.496;2023-03-11T23:40:11;9.70;;;7.10;;
20042;SDS011;10182;52.896;6.496;2023-03-11T23:45:14;12.33;;;8.93;;
20042;SDS011;10182;52.896;6.496;2023-03-11T23:50:18;12.30;;;8.97;;
20042;SDS011;10182;52.896;6.496;2023-03-11T23:55:20;11.80;;;8.77;;
